createdAt,value
2019-05-23T00:00:52.366Z,4.90
2019-05-23T00:02:57.744Z,4.90
2019-05-23T00:05:03.300Z,4.15
2019-05-23T00:07:11.700Z,4.70
2019-05-23T00:09:15.484Z,4.97
2019-05-23T00:11:32.889Z,4.85
2019-05-23T00:13:43.830Z,4.80
2019-05-23T00:15:49.274Z,4.80
2019-05-23T00:17:53.306Z,4.90
2019-05-23T00:19:58.396Z,4.67
2019-05-23T00:24:34.983Z,5.22
2019-05-23T00:26:39.062Z,5.05
2019-05-23T00:28:44.466Z,5.47
2019-05-23T00:30:53.047Z,5.60
2019-05-23T00:32:58.645Z,9.35
2019-05-23T00:35:02.636Z,6.08
2019-05-23T00:37:07.226Z,5.47
2019-05-23T00:39:11.822Z,5.75
2019-05-23T00:41:15.571Z,5.50
2019-05-23T00:43:19.969Z,5.58
2019-05-23T00:45:25.373Z,5.90
2019-05-23T00:47:30.151Z,6.22
2019-05-23T00:49:34.441Z,6.20
2019-05-23T00:51:40.036Z,6.20
2019-05-23T00:53:44.045Z,6.53
2019-05-23T00:55:48.402Z,6.65
2019-05-23T00:57:52.979Z,6.50
2019-05-23T00:59:57.961Z,6.00
2019-05-23T01:02:02.610Z,6.33
2019-05-23T01:04:07.099Z,6.67
2019-05-23T01:06:11.301Z,6.00
2019-05-23T01:08:15.819Z,6.00
2019-05-23T01:10:20.698Z,6.03
2019-05-23T01:12:25.094Z,6.50
2019-05-23T01:14:29.481Z,6.60
2019-05-23T01:16:34.086Z,6.10
2019-05-23T01:18:38.474Z,6.25
2019-05-23T01:21:01.944Z,6.12
2019-05-23T01:23:07.317Z,6.50
2019-05-23T01:25:18.089Z,6.00
2019-05-23T01:27:22.195Z,6.37
2019-05-23T01:29:37.168Z,7.40
2019-05-23T01:31:33.974Z,6.95
2019-05-23T01:33:39.782Z,7.70
2019-05-23T01:35:44.786Z,7.03
2019-05-23T01:37:49.273Z,7.30
2019-05-23T01:39:53.585Z,8.08
2019-05-23T01:41:58.192Z,7.45
2019-05-23T01:44:03.903Z,7.70
2019-05-23T01:46:08.498Z,7.87
2019-05-23T01:48:12.877Z,7.78
2019-05-23T01:50:20.766Z,8.23
2019-05-23T01:52:25.599Z,8.30
2019-05-23T01:54:29.430Z,8.98
2019-05-23T01:56:34.074Z,9.18
2019-05-23T01:58:38.798Z,8.98
2019-05-23T02:00:43.183Z,8.18
2019-05-23T02:02:48.609Z,8.08
2019-05-23T02:04:52.654Z,8.40
2019-05-23T02:06:56.650Z,7.80
2019-05-23T02:09:01.444Z,8.10
2019-05-23T02:11:05.735Z,8.83
2019-05-23T02:13:10.421Z,9.38
2019-05-23T02:15:14.334Z,11.35
2019-05-23T02:17:18.363Z,10.55
2019-05-23T02:19:22.849Z,9.83
2019-05-23T02:21:28.596Z,8.90
2019-05-23T02:23:32.393Z,9.98
2019-05-23T02:25:36.815Z,10.25
2019-05-23T02:27:41.029Z,10.78
2019-05-23T02:29:44.858Z,11.40
2019-05-23T02:31:48.638Z,10.95
2019-05-23T02:33:53.128Z,9.80
2019-05-23T02:35:57.417Z,10.20
2019-05-23T02:38:12.128Z,9.15
2019-05-23T02:40:35.639Z,9.08
2019-05-23T02:42:43.621Z,9.55
2019-05-23T02:44:48.036Z,9.85
2019-05-23T02:46:53.699Z,10.88
2019-05-23T02:49:00.887Z,11.25
2019-05-23T02:51:10.840Z,11.38
2019-05-23T02:53:17.070Z,11.10
2019-05-23T02:55:30.575Z,12.55
2019-05-23T02:57:35.257Z,11.00
2019-05-23T02:59:48.957Z,12.80
2019-05-23T03:02:03.011Z,13.68
2019-05-23T03:04:18.036Z,14.38
2019-05-23T03:06:23.430Z,12.78
2019-05-23T03:08:29.621Z,13.98
2019-05-23T03:10:52.752Z,12.93
2019-05-23T03:12:58.736Z,14.03
2019-05-23T03:15:03.874Z,14.68
2019-05-23T03:17:29.945Z,14.18
2019-05-23T03:19:45.724Z,14.80
2019-05-23T03:21:52.383Z,15.05
2019-05-23T03:23:57.898Z,15.15
2019-05-23T03:26:18.234Z,16.35
2019-05-23T03:28:25.798Z,15.50
2019-05-23T03:30:31.202Z,15.10
2019-05-23T03:32:45.487Z,15.58
2019-05-23T03:34:50.825Z,14.55
2019-05-23T03:36:55.419Z,14.40
2019-05-23T03:38:59.141Z,14.63
2019-05-23T03:41:03.681Z,13.10
2019-05-23T03:43:09.398Z,15.25
2019-05-23T03:45:14.750Z,15.18
2019-05-23T03:47:20.342Z,13.53
2019-05-23T03:49:25.070Z,13.55
2019-05-23T03:51:28.943Z,13.45
2019-05-23T03:53:32.752Z,11.95
2019-05-23T03:55:36.542Z,13.53
2019-05-23T03:57:41.924Z,12.30
2019-05-23T03:59:46.545Z,12.58
2019-05-23T04:01:52.324Z,12.90
2019-05-23T04:03:56.970Z,14.18
2019-05-23T04:06:00.685Z,14.35
2019-05-23T04:08:06.234Z,14.10
2019-05-23T04:10:10.061Z,12.82
2019-05-23T04:12:13.969Z,12.73
2019-05-23T04:14:17.780Z,12.15
2019-05-23T04:16:21.988Z,10.95
2019-05-23T04:18:26.091Z,11.60
2019-05-23T04:20:30.649Z,11.08
2019-05-23T04:22:34.466Z,11.20
2019-05-23T04:24:38.283Z,10.15
2019-05-23T04:26:41.985Z,10.48
2019-05-23T04:28:45.874Z,10.85
2019-05-23T04:30:50.287Z,10.45
2019-05-23T04:32:54.086Z,8.88
2019-05-23T04:34:57.803Z,10.25
2019-05-23T04:37:01.537Z,9.43
2019-05-23T04:39:06.726Z,10.10
2019-05-23T04:41:10.746Z,11.68
2019-05-23T04:43:14.571Z,11.05
2019-05-23T04:45:19.075Z,10.58
2019-05-23T04:47:24.058Z,11.10
2019-05-23T04:49:28.154Z,14.63
2019-05-23T04:51:32.656Z,15.23
2019-05-23T04:53:36.385Z,8.88
2019-05-23T04:55:41.185Z,9.08
2019-05-23T04:57:45.522Z,9.25
2019-05-23T04:59:49.686Z,8.90
2019-05-23T05:01:54.775Z,7.50
2019-05-23T05:03:58.910Z,7.97
2019-05-23T05:06:02.863Z,8.85
2019-05-23T05:08:07.572Z,7.67
2019-05-23T05:10:14.460Z,7.12
2019-05-23T05:12:19.376Z,8.63
2019-05-23T05:14:23.265Z,5.80
2019-05-23T05:16:27.364Z,7.70
2019-05-23T05:18:31.370Z,8.78
2019-05-23T05:20:35.081Z,7.37
2019-05-23T05:22:38.806Z,8.43
2019-05-23T05:24:42.535Z,7.75
2019-05-23T05:26:46.255Z,8.98
2019-05-23T05:28:50.825Z,9.58
2019-05-23T05:30:54.855Z,8.18
2019-05-23T05:32:58.939Z,9.33
2019-05-23T05:35:02.678Z,10.90
2019-05-23T05:37:06.628Z,11.28
2019-05-23T05:39:12.935Z,12.13
2019-05-23T05:41:16.914Z,10.60
2019-05-23T05:43:20.873Z,12.53
2019-05-23T05:45:24.789Z,12.37
2019-05-23T05:47:29.895Z,13.62
2019-05-23T05:49:33.895Z,13.03
2019-05-23T05:51:37.770Z,14.53
2019-05-23T05:53:41.872Z,12.35
2019-05-23T05:55:45.713Z,12.80
2019-05-23T05:57:49.689Z,14.28
2019-05-23T05:59:53.410Z,15.05
2019-05-23T06:01:57.731Z,15.10
2019-05-23T06:04:01.614Z,15.08
2019-05-23T06:06:09.715Z,14.70
2019-05-23T06:08:15.205Z,14.93
2019-05-23T06:10:19.486Z,14.30
2019-05-23T06:12:23.493Z,17.40
2019-05-23T06:14:27.885Z,14.68
2019-05-23T06:16:33.530Z,14.07
2019-05-23T06:18:37.322Z,15.48
2019-05-23T06:20:45.127Z,15.85
2019-05-23T06:22:49.491Z,16.07
2019-05-23T06:24:55.996Z,15.53
2019-05-23T06:26:58.951Z,14.55
2019-05-23T06:29:03.348Z,15.93
2019-05-23T06:31:08.027Z,15.20
2019-05-23T06:33:22.743Z,15.38
2019-05-23T06:35:17.579Z,15.48
2019-05-23T06:37:22.179Z,12.75
2019-05-23T06:39:26.131Z,14.83
2019-05-23T06:41:30.037Z,14.40
2019-05-23T06:43:35.432Z,16.48
2019-05-23T06:45:40.619Z,24.77
2019-05-23T06:47:44.482Z,14.45
2019-05-23T06:49:48.342Z,14.00
2019-05-23T06:51:52.148Z,12.82
2019-05-23T06:53:57.161Z,12.93
2019-05-23T06:56:00.996Z,11.95
2019-05-23T06:58:05.378Z,12.13
2019-05-23T07:00:09.756Z,10.72
2019-05-23T07:02:14.066Z,11.78
2019-05-23T07:04:18.349Z,11.38
2019-05-23T07:06:24.195Z,9.68
2019-05-23T07:08:30.693Z,10.15
2019-05-23T07:10:35.041Z,11.10
2019-05-23T07:12:38.778Z,10.35
2019-05-23T07:14:42.870Z,12.73
2019-05-23T07:16:50.212Z,11.18
2019-05-23T07:18:52.054Z,13.15
2019-05-23T07:20:55.773Z,12.95
2019-05-23T07:22:59.760Z,11.68
2019-05-23T07:25:04.762Z,13.55
2019-05-23T07:27:08.598Z,12.28
2019-05-23T07:29:12.979Z,13.18
2019-05-23T07:31:17.529Z,11.40
2019-05-23T07:33:21.333Z,12.13
2019-05-23T07:35:26.037Z,10.50
2019-05-23T07:37:29.786Z,12.40
2019-05-23T07:39:33.673Z,10.40
2019-05-23T07:41:37.752Z,9.60
2019-05-23T07:43:41.510Z,9.20
2019-05-23T07:45:50.467Z,8.20
2019-05-23T07:47:54.405Z,8.65
2019-05-23T07:49:58.187Z,8.50
2019-05-23T07:52:02.061Z,8.88
2019-05-23T07:54:14.263Z,8.95
2019-05-23T07:56:23.097Z,8.43
2019-05-23T07:58:27.171Z,9.78
2019-05-23T08:00:32.764Z,10.13
2019-05-23T08:02:39.459Z,9.83
2019-05-23T08:04:43.280Z,8.90
2019-05-23T08:06:48.944Z,10.43
2019-05-23T08:08:53.223Z,11.35
2019-05-23T08:10:56.923Z,10.58
2019-05-23T08:13:00.813Z,10.38
2019-05-23T08:15:06.272Z,10.48
2019-05-23T08:17:10.096Z,10.75
2019-05-23T08:19:19.200Z,10.82
2019-05-23T08:21:19.735Z,11.15
2019-05-23T08:23:23.737Z,9.00
2019-05-23T08:25:29.655Z,8.55
2019-05-23T08:27:34.163Z,7.90
2019-05-23T08:29:38.947Z,7.85
2019-05-23T08:31:42.893Z,8.38
2019-05-23T08:33:46.837Z,8.18
2019-05-23T08:35:50.925Z,8.13
2019-05-23T08:37:55.040Z,8.25
2019-05-23T08:39:59.396Z,8.25
2019-05-23T08:42:03.666Z,7.95
2019-05-23T08:44:11.307Z,8.08
2019-05-23T08:46:13.606Z,7.65
2019-05-23T08:48:17.817Z,8.30
2019-05-23T08:50:21.867Z,8.60
2019-05-23T08:52:25.791Z,9.20
2019-05-23T08:54:30.104Z,8.03
2019-05-23T08:56:33.911Z,8.60
2019-05-23T08:58:37.829Z,8.70
2019-05-23T09:00:42.903Z,8.68
2019-05-23T09:02:49.264Z,8.20
2019-05-23T09:05:04.694Z,7.83
2019-05-23T09:06:58.969Z,7.50
2019-05-23T09:09:27.905Z,7.53
2019-05-23T09:11:11.845Z,6.87
2019-05-23T09:13:15.952Z,7.78
2019-05-23T09:15:19.957Z,8.45
2019-05-23T09:17:23.953Z,7.87
2019-05-23T09:19:27.981Z,8.50
2019-05-23T09:21:31.910Z,8.33
2019-05-23T09:23:35.928Z,8.43
2019-05-23T09:25:39.822Z,8.85
2019-05-23T09:27:43.669Z,9.10
2019-05-23T09:29:47.777Z,8.88
2019-05-23T09:31:51.765Z,8.30
2019-05-23T09:33:55.819Z,10.05
2019-05-23T09:35:59.524Z,8.95
2019-05-23T09:38:03.325Z,10.25
2019-05-23T09:40:07.533Z,9.78
2019-05-23T09:42:12.297Z,9.75
2019-05-23T09:44:16.265Z,10.20
2019-05-23T09:46:20.385Z,9.13
2019-05-23T09:48:24.588Z,8.80
2019-05-23T09:50:28.773Z,9.55
2019-05-23T09:52:32.753Z,9.83
2019-05-23T09:54:36.688Z,9.08
2019-05-23T09:56:40.673Z,8.75
2019-05-23T09:58:44.461Z,8.95
2019-05-23T10:00:48.251Z,8.50
2019-05-23T10:02:52.157Z,8.50
2019-05-23T10:04:56.537Z,8.03
2019-05-23T10:07:00.470Z,9.08
2019-05-23T10:09:06.091Z,8.60
2019-05-23T10:11:09.890Z,9.30
2019-05-23T10:13:14.522Z,10.35
2019-05-23T10:15:22.913Z,9.50
2019-05-23T10:17:27.337Z,10.25
2019-05-23T10:19:32.254Z,10.93
2019-05-23T10:21:36.078Z,10.03
2019-05-23T10:23:39.968Z,9.30
2019-05-23T10:25:43.942Z,10.08
2019-05-23T10:27:47.761Z,8.90
2019-05-23T10:29:51.646Z,8.80
2019-05-23T10:31:55.547Z,8.68
2019-05-23T10:33:59.281Z,8.13
2019-05-23T10:36:03.101Z,8.65
2019-05-23T10:38:06.868Z,8.10
2019-05-23T10:40:10.805Z,7.37
2019-05-23T10:42:14.601Z,7.60
2019-05-23T10:44:18.659Z,7.95
2019-05-23T10:46:22.621Z,6.85
2019-05-23T10:48:28.123Z,7.40
2019-05-23T10:50:44.122Z,6.55
2019-05-23T10:52:37.237Z,6.78
2019-05-23T10:54:41.053Z,6.92
2019-05-23T10:56:44.799Z,6.00
2019-05-23T10:58:48.768Z,6.72
2019-05-23T11:00:53.971Z,6.03
2019-05-23T11:02:58.161Z,6.97
2019-05-23T11:05:12.236Z,7.00
2019-05-23T11:07:08.453Z,5.60
2019-05-23T11:09:12.546Z,6.08
2019-05-23T11:11:16.364Z,5.40
2019-05-23T11:13:20.868Z,5.95
2019-05-23T11:15:24.599Z,6.00
2019-05-23T11:17:28.314Z,5.30
2019-05-23T11:19:32.416Z,5.50
2019-05-23T11:21:36.167Z,5.17
2019-05-23T11:23:44.232Z,5.10
2019-05-23T11:25:48.090Z,5.10
2019-05-23T11:27:51.921Z,6.03
2019-05-23T11:29:56.045Z,5.33
2019-05-23T11:32:00.649Z,5.72
2019-05-23T11:34:04.870Z,6.00
2019-05-23T11:36:08.816Z,6.20
2019-05-23T11:38:12.805Z,5.53
2019-05-23T11:40:16.754Z,5.72
2019-05-23T11:42:20.669Z,5.62
2019-05-23T11:44:24.542Z,6.20
2019-05-23T11:46:29.984Z,6.15
2019-05-23T11:48:34.783Z,6.20
2019-05-23T11:50:38.525Z,6.33
2019-05-23T11:52:42.397Z,6.20
2019-05-23T11:54:46.505Z,6.22
2019-05-23T11:56:50.210Z,5.83
2019-05-23T11:58:53.948Z,5.55
2019-05-23T12:01:08.084Z,6.00
2019-05-23T12:03:12.122Z,5.42
2019-05-23T12:05:24.311Z,5.40
2019-05-23T12:07:29.788Z,5.70
2019-05-23T12:09:33.516Z,5.17
2019-05-23T12:11:42.205Z,5.35
2019-05-23T12:13:42.955Z,5.12
2019-05-23T12:15:48.830Z,5.08
2019-05-23T12:17:52.770Z,5.53
2019-05-23T12:19:56.525Z,5.62
2019-05-23T12:22:00.569Z,5.10
2019-05-23T12:24:05.060Z,5.67
2019-05-23T12:26:08.796Z,5.42
2019-05-23T12:28:14.497Z,5.40
2019-05-23T12:30:18.967Z,5.30
2019-05-23T12:32:22.752Z,5.25
2019-05-23T12:34:26.633Z,4.03
2019-05-23T12:36:30.730Z,4.55
2019-05-23T12:38:34.519Z,4.78
2019-05-23T12:40:38.364Z,4.40
2019-05-23T12:42:42.113Z,4.08
2019-05-23T12:44:45.822Z,4.53
2019-05-23T12:46:49.547Z,3.42
2019-05-23T12:48:55.062Z,3.60
2019-05-23T12:51:00.381Z,4.05
2019-05-23T12:53:04.329Z,3.25
2019-05-23T12:55:08.613Z,3.62
2019-05-23T12:57:12.996Z,3.27
2019-05-23T12:59:16.900Z,3.30
2019-05-23T13:01:20.785Z,3.15
2019-05-23T13:03:24.681Z,2.92
2019-05-23T13:05:28.913Z,2.85
2019-05-23T13:07:36.238Z,2.55
2019-05-23T13:09:38.691Z,2.65
2019-05-23T13:11:42.618Z,3.25
2019-05-23T13:13:46.392Z,2.65
2019-05-23T13:15:50.216Z,3.25
2019-05-23T13:17:54.115Z,2.85
2019-05-23T13:19:57.791Z,2.40
2019-05-23T13:22:01.677Z,2.62
2019-05-23T13:24:05.595Z,2.60
2019-05-23T13:26:09.992Z,3.17
2019-05-23T13:28:13.857Z,2.75
2019-05-23T13:30:17.658Z,2.80
2019-05-23T13:32:21.546Z,2.90
2019-05-23T13:34:25.309Z,2.80
2019-05-23T13:36:29.167Z,2.90
2019-05-23T13:38:33.184Z,3.08
2019-05-23T13:40:36.926Z,2.77
2019-05-23T13:42:40.641Z,2.58
2019-05-23T13:44:44.859Z,3.17
2019-05-23T13:46:48.970Z,2.92
2019-05-23T13:48:52.820Z,2.67
2019-05-23T13:50:56.603Z,3.00
2019-05-23T13:53:00.686Z,2.98
2019-05-23T13:55:06.495Z,3.00
2019-05-23T13:57:10.475Z,3.20
2019-05-23T13:59:14.726Z,2.83
2019-05-23T14:01:18.887Z,3.08
2019-05-23T14:03:23.199Z,2.72
2019-05-23T14:05:26.970Z,2.52
2019-05-23T14:07:31.422Z,3.02
2019-05-23T14:09:36.805Z,3.27
2019-05-23T14:11:40.610Z,4.28
2019-05-23T14:13:45.058Z,3.72
2019-05-23T14:15:51.390Z,3.77
2019-05-23T14:17:55.369Z,3.52
2019-05-23T14:19:59.191Z,2.95
2019-05-23T14:22:02.981Z,3.10
2019-05-23T14:24:06.936Z,3.20
2019-05-23T14:26:11.452Z,3.42
2019-05-23T14:28:16.045Z,3.65
2019-05-23T14:30:21.802Z,3.33
2019-05-23T14:32:29.838Z,3.45
2019-05-23T14:34:33.590Z,3.42
2019-05-23T14:36:48.433Z,5.30
2019-05-23T14:38:53.773Z,3.05
2019-05-23T14:40:58.195Z,3.58
2019-05-23T14:43:12.335Z,2.80
2019-05-23T14:45:18.326Z,3.10
2019-05-23T14:47:23.773Z,3.00
2019-05-23T14:49:35.279Z,3.85
2019-05-23T14:51:52.421Z,3.15
2019-05-23T14:54:13.467Z,3.08
2019-05-23T14:56:18.698Z,2.58
2019-05-23T14:58:22.939Z,3.02
2019-05-23T15:00:27.908Z,3.37
2019-05-23T15:02:33.898Z,3.00
2019-05-23T15:04:37.955Z,3.55
2019-05-23T15:06:42.179Z,3.30
2019-05-23T15:08:50.924Z,2.50
2019-05-23T15:10:51.498Z,2.87
2019-05-23T15:12:55.272Z,2.45
2019-05-23T15:14:58.997Z,2.40
2019-05-23T15:17:02.706Z,2.22
2019-05-23T15:19:06.497Z,2.77
2019-05-23T15:21:10.227Z,2.25
2019-05-23T15:23:13.961Z,2.45
2019-05-23T15:25:17.962Z,2.25
2019-05-23T15:27:21.797Z,3.05
2019-05-23T15:29:29.008Z,2.40
2019-05-23T15:31:32.534Z,2.98
2019-05-23T15:33:36.238Z,2.27
2019-05-23T15:35:40.102Z,2.30
2019-05-23T15:37:44.032Z,2.58
2019-05-23T15:39:47.754Z,2.83
2019-05-23T15:41:51.660Z,2.47
2019-05-23T15:43:55.415Z,2.83
2019-05-23T15:45:59.125Z,2.58
2019-05-23T15:48:03.099Z,2.25
2019-05-23T15:50:11.302Z,2.47
2019-05-23T15:52:25.181Z,2.70
2019-05-23T15:54:30.823Z,2.72
2019-05-23T15:56:45.068Z,2.87
2019-05-23T15:59:06.902Z,2.75
2019-05-23T16:01:15.271Z,2.42
2019-05-23T16:03:20.713Z,2.10
2019-05-23T16:05:24.889Z,1.80
2019-05-23T16:07:29.406Z,2.10
2019-05-23T16:09:33.156Z,2.33
2019-05-23T16:11:37.082Z,2.70
2019-05-23T16:13:42.204Z,3.33
2019-05-23T16:15:49.194Z,3.55
2019-05-23T16:17:52.869Z,3.00
2019-05-23T16:19:56.585Z,2.55
2019-05-23T16:22:00.768Z,2.47
2019-05-23T16:24:06.222Z,2.80
2019-05-23T16:26:11.730Z,2.50
2019-05-23T16:28:15.596Z,2.95
2019-05-23T16:30:19.691Z,2.98
2019-05-23T16:32:23.480Z,2.72
2019-05-23T16:34:27.684Z,2.95
2019-05-23T16:36:31.405Z,3.00
2019-05-23T16:38:35.289Z,4.15
2019-05-23T16:40:39.061Z,3.60
2019-05-23T16:42:42.861Z,3.27
2019-05-23T16:44:46.645Z,3.40
2019-05-23T16:46:50.401Z,3.33
2019-05-23T16:48:54.175Z,2.90
2019-05-23T16:50:57.953Z,2.62
2019-05-23T16:53:01.656Z,2.60
2019-05-23T16:55:08.015Z,2.20
2019-05-23T16:57:13.490Z,2.77
2019-05-23T16:59:28.075Z,2.65
2019-05-23T17:01:33.469Z,2.20
2019-05-23T17:03:41.644Z,2.33
2019-05-23T17:06:02.376Z,2.70
2019-05-23T17:08:20.033Z,2.00
2019-05-23T17:10:25.370Z,2.12
2019-05-23T17:12:39.905Z,2.37
2019-05-23T17:14:57.331Z,2.30
2019-05-23T17:17:05.476Z,2.47
2019-05-23T17:19:10.016Z,2.20
2019-05-23T17:21:15.431Z,1.95
2019-05-23T17:23:37.182Z,2.87
2019-05-23T17:25:48.920Z,3.45
2019-05-23T17:27:54.463Z,2.62
2019-05-23T17:30:00.968Z,2.75
2019-05-23T17:32:06.416Z,2.47
2019-05-23T17:34:10.630Z,3.00
2019-05-23T17:36:14.548Z,3.05
2019-05-23T17:38:18.557Z,3.67
2019-05-23T17:40:25.279Z,3.30
2019-05-23T17:42:28.414Z,3.50
2019-05-23T17:44:32.151Z,3.65
2019-05-23T17:46:36.171Z,4.45
2019-05-23T17:48:39.954Z,4.25
2019-05-23T17:50:43.709Z,3.47
2019-05-23T17:52:47.431Z,3.30
2019-05-23T17:54:51.429Z,3.08
2019-05-23T17:56:55.397Z,2.75
2019-05-23T17:58:59.395Z,2.75
2019-05-23T18:01:03.384Z,2.90
2019-05-23T18:03:07.717Z,3.33
2019-05-23T18:05:11.787Z,3.58
2019-05-23T18:07:16.207Z,3.60
2019-05-23T18:09:20.725Z,3.52
2019-05-23T18:11:24.709Z,4.03
2019-05-23T18:13:29.107Z,3.83
2019-05-23T18:15:33.285Z,3.70
2019-05-23T18:17:37.645Z,3.95
2019-05-23T18:19:41.579Z,4.15
2019-05-23T18:21:45.446Z,3.80
2019-05-23T18:23:49.152Z,4.05
2019-05-23T18:25:53.128Z,3.65
2019-05-23T18:27:57.534Z,3.77
2019-05-23T18:30:01.707Z,4.00
2019-05-23T18:32:07.321Z,4.35
2019-05-23T18:34:11.748Z,4.75
2019-05-23T18:36:16.126Z,4.00
2019-05-23T18:38:20.973Z,5.10
2019-05-23T18:40:24.930Z,5.05
2019-05-23T18:42:28.744Z,4.78
2019-05-23T18:44:32.661Z,4.67
2019-05-23T18:46:38.122Z,4.95
2019-05-23T18:48:41.892Z,4.70
2019-05-23T18:50:45.890Z,4.97
2019-05-23T18:52:51.967Z,4.70
2019-05-23T18:54:55.543Z,4.95
2019-05-23T18:56:59.263Z,5.08
2019-05-23T18:59:04.134Z,4.62
2019-05-23T19:01:15.370Z,5.17
2019-05-23T19:03:19.733Z,4.60
2019-05-23T19:05:27.388Z,4.75
2019-05-23T19:07:29.235Z,4.28
2019-05-23T19:10:00.987Z,5.00
2019-05-23T19:12:06.379Z,4.92
2019-05-23T19:14:10.130Z,4.87
2019-05-23T19:16:13.865Z,5.58
2019-05-23T19:18:17.773Z,5.45
2019-05-23T19:20:21.605Z,5.00
2019-05-23T19:22:25.905Z,4.42
2019-05-23T19:24:29.651Z,5.42
2019-05-23T19:26:33.409Z,5.50
2019-05-23T19:28:37.386Z,5.25
2019-05-23T19:30:41.198Z,5.80
2019-05-23T19:32:44.994Z,5.47
2019-05-23T19:34:48.978Z,5.15
2019-05-23T19:36:52.969Z,5.15
2019-05-23T19:38:56.782Z,5.20
2019-05-23T19:41:01.012Z,5.58
2019-05-23T19:43:06.368Z,4.42
2019-05-23T19:45:10.209Z,4.58
2019-05-23T19:47:14.042Z,4.58
2019-05-23T19:49:18.397Z,5.00
2019-05-23T19:51:22.127Z,4.47
2019-05-23T19:53:26.208Z,4.90
2019-05-23T19:55:30.089Z,4.65
2019-05-23T19:57:34.478Z,4.80
2019-05-23T19:59:38.212Z,5.15
2019-05-23T20:01:46.738Z,4.58
2019-05-23T20:03:51.237Z,4.62
2019-05-23T20:05:56.648Z,4.72
2019-05-23T20:08:00.901Z,4.22
2019-05-23T20:10:05.209Z,4.95
2019-05-23T20:12:09.295Z,4.58
2019-05-23T20:14:13.038Z,4.87
2019-05-23T20:16:16.951Z,4.65
2019-05-23T20:18:20.928Z,5.05
2019-05-23T20:20:25.801Z,5.75
2019-05-23T20:22:30.068Z,5.22
2019-05-23T20:24:33.873Z,5.78
2019-05-23T20:26:37.664Z,6.03
2019-05-23T20:28:41.487Z,5.40
2019-05-23T20:30:53.575Z,6.10
2019-05-23T20:32:57.288Z,6.17
2019-05-23T20:35:01.155Z,6.17
2019-05-23T20:37:04.910Z,6.58
2019-05-23T20:39:08.643Z,6.22
2019-05-23T20:41:12.422Z,6.55
2019-05-23T20:43:16.154Z,6.40
2019-05-23T20:45:19.976Z,6.15
2019-05-23T20:47:24.801Z,6.00
2019-05-23T20:49:28.603Z,6.58
2019-05-23T20:51:32.522Z,6.28
2019-05-23T20:53:36.278Z,6.97
2019-05-23T20:55:40.077Z,7.22
2019-05-23T20:57:43.866Z,6.60
2019-05-23T20:59:47.659Z,7.20
2019-05-23T21:01:52.192Z,7.25
2019-05-23T21:03:56.101Z,8.20
2019-05-23T21:05:59.885Z,7.30
2019-05-23T21:08:03.642Z,7.40
2019-05-23T21:10:08.268Z,7.15
2019-05-23T21:12:28.428Z,7.50
2019-05-23T21:14:17.832Z,7.65
2019-05-23T21:16:21.756Z,8.05
2019-05-23T21:18:25.565Z,8.08
2019-05-23T21:20:29.265Z,8.13
2019-05-23T21:22:33.584Z,7.83
2019-05-23T21:24:37.377Z,7.50
2019-05-23T21:26:41.109Z,8.00
2019-05-23T21:28:44.912Z,8.08
2019-05-23T21:30:48.898Z,8.18
2019-05-23T21:32:52.595Z,8.35
2019-05-23T21:34:56.326Z,8.45
2019-05-23T21:37:00.083Z,8.48
2019-05-23T21:39:06.967Z,8.50
2019-05-23T21:41:10.672Z,8.48
2019-05-23T21:43:14.615Z,8.65
2019-05-23T21:45:18.569Z,8.50
2019-05-23T21:47:22.310Z,8.63
2019-05-23T21:49:26.686Z,9.85
2019-05-23T21:51:31.692Z,9.60
2019-05-23T21:53:35.792Z,8.03
2019-05-23T21:55:41.206Z,8.70
2019-05-23T21:57:44.918Z,8.78
2019-05-23T21:59:48.630Z,8.48
2019-05-23T22:02:06.024Z,8.83
2019-05-23T22:04:11.480Z,8.93
2019-05-23T22:06:16.938Z,8.78
2019-05-23T22:08:20.665Z,8.78
2019-05-23T22:10:24.545Z,9.08
2019-05-23T22:12:28.467Z,8.58
2019-05-23T22:14:32.172Z,8.45
2019-05-23T22:16:35.971Z,9.08
2019-05-23T22:18:39.789Z,8.53
2019-05-23T22:20:43.533Z,9.15
2019-05-23T22:22:47.267Z,9.08
2019-05-23T22:24:51.218Z,9.33
2019-05-23T22:26:54.953Z,9.23
2019-05-23T22:28:58.714Z,9.48
2019-05-23T22:31:02.474Z,10.40
2019-05-23T22:33:07.253Z,12.35
2019-05-23T22:35:12.613Z,11.00
2019-05-23T22:37:17.997Z,10.40
2019-05-23T22:39:21.728Z,10.72
2019-05-23T22:41:25.649Z,9.80
2019-05-23T22:43:29.572Z,9.68
2019-05-23T22:45:33.766Z,9.88
2019-05-23T22:47:37.573Z,9.53
2019-05-23T22:49:41.361Z,9.83
2019-05-23T22:51:45.117Z,10.08
2019-05-23T22:53:48.856Z,10.45
2019-05-23T22:55:52.569Z,10.28
2019-05-23T22:57:56.500Z,10.40
2019-05-23T23:00:00.252Z,9.63
2019-05-23T23:02:05.614Z,10.25
2019-05-23T23:04:09.906Z,9.98
2019-05-23T23:06:14.396Z,10.25
2019-05-23T23:08:37.572Z,9.85
2019-05-23T23:10:41.371Z,11.10
2019-05-23T23:12:45.170Z,9.75
2019-05-23T23:14:48.919Z,10.50
2019-05-23T23:16:52.761Z,10.75
2019-05-23T23:18:56.676Z,11.10
2019-05-23T23:21:00.335Z,11.18
2019-05-23T23:23:04.222Z,10.70
2019-05-23T23:25:08.460Z,9.98
2019-05-23T23:27:12.473Z,10.38
2019-05-23T23:29:16.254Z,10.45
2019-05-23T23:31:20.093Z,11.18
2019-05-23T23:33:23.795Z,11.30
2019-05-23T23:35:27.521Z,11.70
2019-05-23T23:37:31.265Z,12.23
2019-05-23T23:39:35.045Z,10.85
2019-05-23T23:41:38.869Z,12.07
2019-05-23T23:43:57.961Z,11.43
2019-05-23T23:46:05.886Z,11.95
2019-05-23T23:48:27.575Z,11.50
2019-05-23T23:50:49.503Z,11.83
2019-05-23T23:53:11.254Z,11.90
2019-05-23T23:55:33.361Z,11.95
2019-05-23T23:57:55.287Z,11.65
